sensor_id;sensor_type;location;lat;lon;timestamp;P1;durP1;ratioP1;P2;durP2;ratioP2
4794;SDS011;2411;47.060;15.064;2023-07-24T00:01:55;8.80;;;6.10;;
4794;SDS011;2411;47.060;15.064;2023-07-24T00:04:22;8.17;;;6.63;;
4794;SDS011;2411;47.060;15.064;2023-07-24T00:06:49;10.50;;;6.50;;
4794;SDS011;2411;47.060;15.064;2023-07-24T00:09:17;10.10;;;6.90;;
4794;SDS011;2411;47.060;15.064;2023-07-24T00:11:44;6.73;;;6.10;;
4794;SDS011;2411;47.060;15.064;2023-07-24T00:14:11;7.43;;;6.43;;
4794;SDS011;2411;47.060;15.064;2023-07-24T00:16:38;9.57;;;7.73;;
4794;SDS011;2411;47.060;15.064;2023-07-24T00:19:06;6.50;;;5.43;;
4794;SDS011;2411;47.060;15.064;2023-07-24T00:21:33;11.10;;;7.10;;
4794;SDS011;2411;47.060;15.064;2023-07-24T00:24:00;8.87;;;6.90;;
4794;SDS011;2411;47.060;15.064;2023-07-24T00:26:27;7.00;;;6.20;;
4794;SDS011;2411;47.060;15.064;2023-07-24T00:28:55;7.23;;;6.53;;
4794;SDS011;2411;47.060;15.064;2023-07-24T00:31:22;9.50;;;6.37;;
4794;SDS011;2411;47.060;15.064;2023-07-24T00:33:49;9.40;;;7.03;;
4794;SDS011;2411;47.060;15.064;2023-07-24T00:36:17;8.70;;;5.87;;
4794;SDS011;2411;47.060;15.064;2023-07-24T00:38:44;8.43;;;6.70;;
4794;SDS011;2411;47.060;15.064;2023-07-24T00:41:11;10.93;;;6.60;;
4794;SDS011;2411;47.060;15.064;2023-07-24T00:43:38;10.60;;;7.70;;
4794;SDS011;2411;47.060;15.064;2023-07-24T00:46:05;8.60;;;6.60;;
4794;SDS011;2411;47.060;15.064;2023-07-24T00:48:33;8.43;;;6.67;;
4794;SDS011;2411;47.060;15.064;2023-07-24T00:51:00;7.43;;;6.50;;
4794;SDS011;2411;47.060;15.064;2023-07-24T00:53:28;10.33;;;6.90;;
4794;SDS011;2411;47.060;15.064;2023-07-24T00:55:56;7.33;;;6.60;;
4794;SDS011;2411;47.060;15.064;2023-07-24T00:58:23;8.73;;;6.20;;
4794;SDS011;2411;47.060;15.064;2023-07-24T01:00:50;7.80;;;6.73;;
4794;SDS011;2411;47.060;15.064;2023-07-24T01:03:18;7.57;;;6.20;;
4794;SDS011;2411;47.060;15.064;2023-07-24T01:05:46;9.13;;;6.53;;
4794;SDS011;2411;47.060;15.064;2023-07-24T01:08:13;7.60;;;6.77;;
4794;SDS011;2411;47.060;15.064;2023-07-24T01:10:40;9.30;;;6.43;;
4794;SDS011;2411;47.060;15.064;2023-07-24T01:13:10;8.53;;;6.63;;
4794;SDS011;2411;47.060;15.064;2023-07-24T01:15:45;9.67;;;6.67;;
4794;SDS011;2411;47.060;15.064;2023-07-24T01:18:17;7.57;;;6.00;;
4794;SDS011;2411;47.060;15.064;2023-07-24T01:20:50;10.47;;;7.43;;
4794;SDS011;2411;47.060;15.064;2023-07-24T01:23:22;7.37;;;6.67;;
4794;SDS011;2411;47.060;15.064;2023-07-24T01:25:59;7.23;;;6.10;;
4794;SDS011;2411;47.060;15.064;2023-07-24T01:28:29;8.00;;;6.70;;
4794;SDS011;2411;47.060;15.064;2023-07-24T01:30:56;9.23;;;7.10;;
4794;SDS011;2411;47.060;15.064;2023-07-24T01:33:24;9.00;;;6.70;;
4794;SDS011;2411;47.060;15.064;2023-07-24T01:35:57;9.97;;;6.33;;
4794;SDS011;2411;47.060;15.064;2023-07-24T01:38:26;9.63;;;7.43;;
4794;SDS011;2411;47.060;15.064;2023-07-24T01:40:54;7.53;;;6.70;;
4794;SDS011;2411;47.060;15.064;2023-07-24T01:43:24;8.47;;;6.77;;
4794;SDS011;2411;47.060;15.064;2023-07-24T01:45:53;12.20;;;6.70;;
4794;SDS011;2411;47.060;15.064;2023-07-24T01:48:21;11.20;;;7.17;;
4794;SDS011;2411;47.060;15.064;2023-07-24T01:50:48;11.13;;;6.77;;
4794;SDS011;2411;47.060;15.064;2023-07-24T01:53:16;7.33;;;6.30;;
4794;SDS011;2411;47.060;15.064;2023-07-24T01:55:44;10.73;;;8.10;;
4794;SDS011;2411;47.060;15.064;2023-07-24T01:58:11;11.27;;;7.07;;
4794;SDS011;2411;47.060;15.064;2023-07-24T02:00:38;11.37;;;7.03;;
4794;SDS011;2411;47.060;15.064;2023-07-24T02:03:05;9.00;;;6.90;;
4794;SDS011;2411;47.060;15.064;2023-07-24T02:05:33;7.80;;;6.90;;
4794;SDS011;2411;47.060;15.064;2023-07-24T02:08:01;9.17;;;6.87;;
4794;SDS011;2411;47.060;15.064;2023-07-24T02:10:28;7.00;;;6.30;;
4794;SDS011;2411;47.060;15.064;2023-07-24T02:12:55;9.10;;;7.30;;
4794;SDS011;2411;47.060;15.064;2023-07-24T02:15:22;8.20;;;6.40;;
4794;SDS011;2411;47.060;15.064;2023-07-24T02:17:50;9.80;;;7.23;;
4794;SDS011;2411;47.060;15.064;2023-07-24T02:20:17;8.67;;;6.53;;
4794;SDS011;2411;47.060;15.064;2023-07-24T02:22:44;8.40;;;6.60;;
4794;SDS011;2411;47.060;15.064;2023-07-24T02:25:11;14.70;;;7.00;;
4794;SDS011;2411;47.060;15.064;2023-07-24T02:27:38;10.17;;;7.00;;
4794;SDS011;2411;47.060;15.064;2023-07-24T02:30:06;9.77;;;7.40;;
4794;SDS011;2411;47.060;15.064;2023-07-24T02:32:33;10.37;;;6.97;;
4794;SDS011;2411;47.060;15.064;2023-07-24T02:35:01;9.80;;;7.20;;
4794;SDS011;2411;47.060;15.064;2023-07-24T02:37:28;10.57;;;6.80;;
4794;SDS011;2411;47.060;15.064;2023-07-24T02:39:55;7.80;;;6.77;;
4794;SDS011;2411;47.060;15.064;2023-07-24T02:42:22;7.00;;;6.30;;
4794;SDS011;2411;47.060;15.064;2023-07-24T02:44:50;8.90;;;7.57;;
4794;SDS011;2411;47.060;15.064;2023-07-24T02:47:17;8.87;;;7.20;;
4794;SDS011;2411;47.060;15.064;2023-07-24T02:49:44;9.50;;;6.73;;
4794;SDS011;2411;47.060;15.064;2023-07-24T02:52:11;9.97;;;7.50;;
4794;SDS011;2411;47.060;15.064;2023-07-24T02:54:39;8.47;;;7.57;;
4794;SDS011;2411;47.060;15.064;2023-07-24T02:57:06;8.27;;;6.93;;
4794;SDS011;2411;47.060;15.064;2023-07-24T02:59:33;14.60;;;7.43;;
4794;SDS011;2411;47.060;15.064;2023-07-24T03:02:02;9.93;;;6.70;;
4794;SDS011;2411;47.060;15.064;2023-07-24T03:04:29;9.40;;;7.27;;
4794;SDS011;2411;47.060;15.064;2023-07-24T03:06:57;11.00;;;6.67;;
4794;SDS011;2411;47.060;15.064;2023-07-24T03:09:24;14.37;;;8.00;;
4794;SDS011;2411;47.060;15.064;2023-07-24T03:11:52;9.13;;;7.20;;
4794;SDS011;2411;47.060;15.064;2023-07-24T03:14:19;10.10;;;7.00;;
4794;SDS011;2411;47.060;15.064;2023-07-24T03:16:46;11.63;;;7.40;;
4794;SDS011;2411;47.060;15.064;2023-07-24T03:19:13;8.90;;;6.33;;
4794;SDS011;2411;47.060;15.064;2023-07-24T03:21:40;10.70;;;7.83;;
4794;SDS011;2411;47.060;15.064;2023-07-24T03:24:08;8.30;;;7.17;;
4794;SDS011;2411;47.060;15.064;2023-07-24T03:26:35;10.47;;;6.80;;
4794;SDS011;2411;47.060;15.064;2023-07-24T03:29:03;9.60;;;7.10;;
4794;SDS011;2411;47.060;15.064;2023-07-24T03:31:31;9.13;;;6.60;;
4794;SDS011;2411;47.060;15.064;2023-07-24T03:33:59;9.50;;;7.13;;
4794;SDS011;2411;47.060;15.064;2023-07-24T03:36:26;10.70;;;6.77;;
4794;SDS011;2411;47.060;15.064;2023-07-24T03:38:54;9.83;;;7.27;;
4794;SDS011;2411;47.060;15.064;2023-07-24T03:41:21;10.80;;;7.60;;
4794;SDS011;2411;47.060;15.064;2023-07-24T03:43:48;7.93;;;7.07;;
4794;SDS011;2411;47.060;15.064;2023-07-24T03:46:15;8.07;;;6.40;;
4794;SDS011;2411;47.060;15.064;2023-07-24T03:48:42;9.37;;;7.30;;
4794;SDS011;2411;47.060;15.064;2023-07-24T03:51:10;8.80;;;6.50;;
4794;SDS011;2411;47.060;15.064;2023-07-24T03:53:37;8.40;;;6.40;;
4794;SDS011;2411;47.060;15.064;2023-07-24T03:56:04;7.90;;;7.10;;
4794;SDS011;2411;47.060;15.064;2023-07-24T03:58:31;8.87;;;7.13;;
4794;SDS011;2411;47.060;15.064;2023-07-24T04:00:58;8.50;;;7.00;;
4794;SDS011;2411;47.060;15.064;2023-07-24T04:03:26;8.60;;;6.87;;
4794;SDS011;2411;47.060;15.064;2023-07-24T04:05:53;11.43;;;7.10;;
4794;SDS011;2411;47.060;15.064;2023-07-24T04:08:20;8.80;;;6.50;;
4794;SDS011;2411;47.060;15.064;2023-07-24T04:10:48;8.90;;;7.00;;
4794;SDS011;2411;47.060;15.064;2023-07-24T04:13:15;9.93;;;7.07;;
4794;SDS011;2411;47.060;15.064;2023-07-24T04:15:42;8.53;;;7.63;;
4794;SDS011;2411;47.060;15.064;2023-07-24T04:18:11;7.83;;;6.57;;
4794;SDS011;2411;47.060;15.064;2023-07-24T04:20:38;9.00;;;7.30;;
4794;SDS011;2411;47.060;15.064;2023-07-24T04:23:05;8.33;;;7.30;;
4794;SDS011;2411;47.060;15.064;2023-07-24T04:25:32;8.53;;;7.13;;
4794;SDS011;2411;47.060;15.064;2023-07-24T04:28:00;10.40;;;6.80;;
4794;SDS011;2411;47.060;15.064;2023-07-24T04:30:28;8.97;;;6.43;;
4794;SDS011;2411;47.060;15.064;2023-07-24T04:32:55;8.23;;;6.77;;
4794;SDS011;2411;47.060;15.064;2023-07-24T04:35:22;13.57;;;6.87;;
4794;SDS011;2411;47.060;15.064;2023-07-24T04:37:49;8.87;;;7.07;;
4794;SDS011;2411;47.060;15.064;2023-07-24T04:40:18;7.97;;;7.10;;
4794;SDS011;2411;47.060;15.064;2023-07-24T04:42:45;12.30;;;6.77;;
4794;SDS011;2411;47.060;15.064;2023-07-24T04:45:12;8.60;;;7.00;;
4794;SDS011;2411;47.060;15.064;2023-07-24T04:47:39;8.13;;;7.27;;
4794;SDS011;2411;47.060;15.064;2023-07-24T04:50:07;9.63;;;7.60;;
4794;SDS011;2411;47.060;15.064;2023-07-24T04:52:34;7.43;;;6.73;;
4794;SDS011;2411;47.060;15.064;2023-07-24T04:55:01;13.37;;;7.40;;
4794;SDS011;2411;47.060;15.064;2023-07-24T04:57:29;8.47;;;7.43;;
4794;SDS011;2411;47.060;15.064;2023-07-24T04:59:56;9.13;;;6.60;;
4794;SDS011;2411;47.060;15.064;2023-07-24T05:02:23;8.50;;;6.90;;
4794;SDS011;2411;47.060;15.064;2023-07-24T05:04:50;7.47;;;6.70;;
4794;SDS011;2411;47.060;15.064;2023-07-24T05:07:18;7.57;;;6.73;;
4794;SDS011;2411;47.060;15.064;2023-07-24T05:09:45;11.27;;;7.03;;
4794;SDS011;2411;47.060;15.064;2023-07-24T05:12:12;9.57;;;6.33;;
4794;SDS011;2411;47.060;15.064;2023-07-24T05:14:40;8.03;;;7.07;;
4794;SDS011;2411;47.060;15.064;2023-07-24T05:17:07;8.63;;;6.63;;
4794;SDS011;2411;47.060;15.064;2023-07-24T05:19:34;6.87;;;6.17;;
4794;SDS011;2411;47.060;15.064;2023-07-24T05:22:01;8.57;;;6.53;;
4794;SDS011;2411;47.060;15.064;2023-07-24T05:24:29;8.40;;;6.70;;
4794;SDS011;2411;47.060;15.064;2023-07-24T05:26:56;8.73;;;6.50;;
4794;SDS011;2411;47.060;15.064;2023-07-24T05:29:23;7.10;;;6.40;;
4794;SDS011;2411;47.060;15.064;2023-07-24T05:31:50;9.17;;;6.70;;
4794;SDS011;2411;47.060;15.064;2023-07-24T05:34:18;11.47;;;7.40;;
4794;SDS011;2411;47.060;15.064;2023-07-24T05:36:45;8.53;;;6.80;;
4794;SDS011;2411;47.060;15.064;2023-07-24T05:39:12;10.43;;;6.23;;
4794;SDS011;2411;47.060;15.064;2023-07-24T05:41:39;9.90;;;6.20;;
4794;SDS011;2411;47.060;15.064;2023-07-24T05:44:07;9.87;;;7.37;;
4794;SDS011;2411;47.060;15.064;2023-07-24T05:46:34;8.20;;;6.40;;
4794;SDS011;2411;47.060;15.064;2023-07-24T05:49:01;9.93;;;6.77;;
4794;SDS011;2411;47.060;15.064;2023-07-24T05:51:28;10.37;;;7.37;;
4794;SDS011;2411;47.060;15.064;2023-07-24T05:53:56;8.50;;;6.73;;
4794;SDS011;2411;47.060;15.064;2023-07-24T05:56:23;10.67;;;6.13;;
4794;SDS011;2411;47.060;15.064;2023-07-24T05:58:50;9.70;;;5.63;;
4794;SDS011;2411;47.060;15.064;2023-07-24T06:01:18;8.77;;;5.83;;
4794;SDS011;2411;47.060;15.064;2023-07-24T06:03:45;10.60;;;6.53;;
4794;SDS011;2411;47.060;15.064;2023-07-24T06:06:12;9.83;;;7.27;;
4794;SDS011;2411;47.060;15.064;2023-07-24T06:08:39;9.77;;;6.20;;
4794;SDS011;2411;47.060;15.064;2023-07-24T06:11:06;12.30;;;6.33;;
4794;SDS011;2411;47.060;15.064;2023-07-24T06:13:34;8.83;;;5.93;;
4794;SDS011;2411;47.060;15.064;2023-07-24T06:16:01;9.70;;;6.43;;
4794;SDS011;2411;47.060;15.064;2023-07-24T06:18:28;9.40;;;6.67;;
4794;SDS011;2411;47.060;15.064;2023-07-24T06:20:55;8.73;;;6.13;;
4794;SDS011;2411;47.060;15.064;2023-07-24T06:23:22;9.43;;;6.60;;
4794;SDS011;2411;47.060;15.064;2023-07-24T06:25:50;9.23;;;6.63;;
4794;SDS011;2411;47.060;15.064;2023-07-24T06:28:18;13.90;;;7.60;;
4794;SDS011;2411;47.060;15.064;2023-07-24T06:30:46;15.03;;;6.90;;
4794;SDS011;2411;47.060;15.064;2023-07-24T06:33:13;10.07;;;7.07;;
4794;SDS011;2411;47.060;15.064;2023-07-24T06:35:40;10.40;;;7.13;;
4794;SDS011;2411;47.060;15.064;2023-07-24T06:38:07;10.10;;;7.10;;
4794;SDS011;2411;47.060;15.064;2023-07-24T06:40:35;9.53;;;7.50;;
4794;SDS011;2411;47.060;15.064;2023-07-24T06:43:02;8.27;;;6.70;;
4794;SDS011;2411;47.060;15.064;2023-07-24T06:45:29;15.90;;;6.60;;
4794;SDS011;2411;47.060;15.064;2023-07-24T06:47:57;19.73;;;7.90;;
4794;SDS011;2411;47.060;15.064;2023-07-24T06:50:24;11.37;;;7.63;;
4794;SDS011;2411;47.060;15.064;2023-07-24T06:52:51;11.20;;;7.20;;
4794;SDS011;2411;47.060;15.064;2023-07-24T06:55:20;15.10;;;8.60;;
4794;SDS011;2411;47.060;15.064;2023-07-24T06:57:47;13.13;;;7.43;;
4794;SDS011;2411;47.060;15.064;2023-07-24T07:00:15;17.17;;;7.77;;
4794;SDS011;2411;47.060;15.064;2023-07-24T07:02:42;9.90;;;6.80;;
4794;SDS011;2411;47.060;15.064;2023-07-24T07:05:09;9.57;;;6.90;;
4794;SDS011;2411;47.060;15.064;2023-07-24T07:07:36;14.10;;;6.87;;
4794;SDS011;2411;47.060;15.064;2023-07-24T07:10:04;11.13;;;6.67;;
4794;SDS011;2411;47.060;15.064;2023-07-24T07:12:32;14.50;;;7.37;;
4794;SDS011;2411;47.060;15.064;2023-07-24T07:14:59;12.70;;;6.57;;
4794;SDS011;2411;47.060;15.064;2023-07-24T07:17:26;9.80;;;7.03;;
4794;SDS011;2411;47.060;15.064;2023-07-24T07:19:54;8.83;;;6.97;;
4794;SDS011;2411;47.060;15.064;2023-07-24T07:22:23;8.13;;;6.07;;
4794;SDS011;2411;47.060;15.064;2023-07-24T07:24:50;9.67;;;6.20;;
4794;SDS011;2411;47.060;15.064;2023-07-24T07:27:17;15.67;;;7.87;;
4794;SDS011;2411;47.060;15.064;2023-07-24T07:29:45;14.30;;;6.67;;
4794;SDS011;2411;47.060;15.064;2023-07-24T07:32:12;10.63;;;6.73;;
4794;SDS011;2411;47.060;15.064;2023-07-24T07:34:39;21.63;;;6.67;;
4794;SDS011;2411;47.060;15.064;2023-07-24T07:37:06;11.47;;;5.93;;
4794;SDS011;2411;47.060;15.064;2023-07-24T07:39:34;11.50;;;7.30;;
4794;SDS011;2411;47.060;15.064;2023-07-24T07:42:01;12.90;;;6.60;;
4794;SDS011;2411;47.060;15.064;2023-07-24T07:44:43;10.80;;;6.97;;
4794;SDS011;2411;47.060;15.064;2023-07-24T07:47:11;9.10;;;5.70;;
4794;SDS011;2411;47.060;15.064;2023-07-24T07:49:38;11.20;;;6.90;;
4794;SDS011;2411;47.060;15.064;2023-07-24T07:52:07;18.17;;;7.57;;
4794;SDS011;2411;47.060;15.064;2023-07-24T07:54:34;17.20;;;6.93;;
4794;SDS011;2411;47.060;15.064;2023-07-24T07:57:01;8.73;;;5.87;;
4794;SDS011;2411;47.060;15.064;2023-07-24T07:59:30;10.10;;;7.57;;
4794;SDS011;2411;47.060;15.064;2023-07-24T08:01:58;9.43;;;7.20;;
4794;SDS011;2411;47.060;15.064;2023-07-24T08:04:25;17.80;;;7.63;;
4794;SDS011;2411;47.060;15.064;2023-07-24T08:06:53;11.27;;;7.70;;
4794;SDS011;2411;47.060;15.064;2023-07-24T08:09:20;14.50;;;7.20;;
4794;SDS011;2411;47.060;15.064;2023-07-24T08:11:48;10.23;;;6.87;;
4794;SDS011;2411;47.060;15.064;2023-07-24T08:14:15;10.33;;;7.10;;
4794;SDS011;2411;47.060;15.064;2023-07-24T08:16:43;10.47;;;6.77;;
4794;SDS011;2411;47.060;15.064;2023-07-24T08:19:10;15.13;;;6.80;;
4794;SDS011;2411;47.060;15.064;2023-07-24T08:21:37;9.03;;;7.00;;
4794;SDS011;2411;47.060;15.064;2023-07-24T08:24:06;8.77;;;7.13;;
4794;SDS011;2411;47.060;15.064;2023-07-24T08:26:33;10.43;;;7.80;;
4794;SDS011;2411;47.060;15.064;2023-07-24T08:29:00;16.53;;;8.10;;
4794;SDS011;2411;47.060;15.064;2023-07-24T08:31:28;10.83;;;6.97;;
4794;SDS011;2411;47.060;15.064;2023-07-24T08:33:57;9.67;;;7.53;;
4794;SDS011;2411;47.060;15.064;2023-07-24T08:36:25;11.13;;;7.57;;
4794;SDS011;2411;47.060;15.064;2023-07-24T08:38:52;11.73;;;8.10;;
4794;SDS011;2411;47.060;15.064;2023-07-24T08:41:19;10.30;;;8.30;;
4794;SDS011;2411;47.060;15.064;2023-07-24T08:43:47;12.67;;;8.30;;
4794;SDS011;2411;47.060;15.064;2023-07-24T08:46:16;13.93;;;8.83;;
4794;SDS011;2411;47.060;15.064;2023-07-24T08:48:44;11.03;;;8.17;;
4794;SDS011;2411;47.060;15.064;2023-07-24T08:51:12;10.57;;;8.13;;
4794;SDS011;2411;47.060;15.064;2023-07-24T08:53:42;9.73;;;7.33;;
4794;SDS011;2411;47.060;15.064;2023-07-24T08:56:11;11.90;;;9.83;;
4794;SDS011;2411;47.060;15.064;2023-07-24T08:58:39;8.87;;;7.97;;
4794;SDS011;2411;47.060;15.064;2023-07-24T09:01:06;12.83;;;8.50;;
4794;SDS011;2411;47.060;15.064;2023-07-24T09:03:35;13.30;;;8.93;;
4794;SDS011;2411;47.060;15.064;2023-07-24T09:06:03;10.93;;;8.17;;
4794;SDS011;2411;47.060;15.064;2023-07-24T09:08:32;11.77;;;9.07;;
4794;SDS011;2411;47.060;15.064;2023-07-24T09:11:03;14.07;;;8.87;;
4794;SDS011;2411;47.060;15.064;2023-07-24T09:13:31;17.10;;;9.60;;
4794;SDS011;2411;47.060;15.064;2023-07-24T09:15:59;14.83;;;9.10;;
4794;SDS011;2411;47.060;15.064;2023-07-24T09:18:26;14.93;;;8.87;;
4794;SDS011;2411;47.060;15.064;2023-07-24T09:20:53;11.63;;;8.90;;
4794;SDS011;2411;47.060;15.064;2023-07-24T09:23:26;13.93;;;9.40;;
4794;SDS011;2411;47.060;15.064;2023-07-24T09:25:56;13.20;;;9.03;;
4794;SDS011;2411;47.060;15.064;2023-07-24T09:28:24;12.30;;;9.37;;
4794;SDS011;2411;47.060;15.064;2023-07-24T09:30:52;14.23;;;9.30;;
4794;SDS011;2411;47.060;15.064;2023-07-24T09:33:37;13.87;;;9.57;;
4794;SDS011;2411;47.060;15.064;2023-07-24T09:36:07;12.80;;;9.33;;
4794;SDS011;2411;47.060;15.064;2023-07-24T09:38:38;15.13;;;10.17;;
4794;SDS011;2411;47.060;15.064;2023-07-24T09:41:06;10.90;;;9.40;;
4794;SDS011;2411;47.060;15.064;2023-07-24T09:43:34;13.47;;;10.30;;
4794;SDS011;2411;47.060;15.064;2023-07-24T09:46:07;18.53;;;10.10;;
4794;SDS011;2411;47.060;15.064;2023-07-24T09:48:36;15.00;;;10.17;;
4794;SDS011;2411;47.060;15.064;2023-07-24T09:51:08;14.57;;;10.47;;
4794;SDS011;2411;47.060;15.064;2023-07-24T09:53:39;12.13;;;9.50;;
4794;SDS011;2411;47.060;15.064;2023-07-24T09:56:14;17.53;;;10.33;;
4794;SDS011;2411;47.060;15.064;2023-07-24T09:58:44;14.07;;;10.23;;
4794;SDS011;2411;47.060;15.064;2023-07-24T10:01:15;12.40;;;10.03;;
4794;SDS011;2411;47.060;15.064;2023-07-24T10:03:47;11.90;;;9.30;;
4794;SDS011;2411;47.060;15.064;2023-07-24T10:06:18;13.20;;;9.77;;
4794;SDS011;2411;47.060;15.064;2023-07-24T10:08:47;12.10;;;9.97;;
4794;SDS011;2411;47.060;15.064;2023-07-24T10:11:15;17.57;;;10.40;;
4794;SDS011;2411;47.060;15.064;2023-07-24T10:13:43;12.10;;;9.20;;
4794;SDS011;2411;47.060;15.064;2023-07-24T10:16:10;11.57;;;9.93;;
4794;SDS011;2411;47.060;15.064;2023-07-24T10:18:42;10.67;;;8.80;;
4794;SDS011;2411;47.060;15.064;2023-07-24T10:21:12;17.07;;;10.30;;
4794;SDS011;2411;47.060;15.064;2023-07-24T10:23:41;14.23;;;9.70;;
4794;SDS011;2411;47.060;15.064;2023-07-24T10:26:10;12.73;;;9.60;;
4794;SDS011;2411;47.060;15.064;2023-07-24T10:28:38;11.70;;;9.43;;
4794;SDS011;2411;47.060;15.064;2023-07-24T10:31:21;10.17;;;8.57;;
4794;SDS011;2411;47.060;15.064;2023-07-24T10:33:50;12.53;;;9.97;;
4794;SDS011;2411;47.060;15.064;2023-07-24T10:36:18;14.17;;;9.00;;
4794;SDS011;2411;47.060;15.064;2023-07-24T10:38:56;12.40;;;9.20;;
4794;SDS011;2411;47.060;15.064;2023-07-24T10:41:33;15.13;;;10.43;;
4794;SDS011;2411;47.060;15.064;2023-07-24T10:44:02;13.67;;;9.67;;
4794;SDS011;2411;47.060;15.064;2023-07-24T10:46:36;15.63;;;10.37;;
4794;SDS011;2411;47.060;15.064;2023-07-24T10:49:04;12.23;;;9.17;;
4794;SDS011;2411;47.060;15.064;2023-07-24T10:51:32;12.70;;;9.40;;
4794;SDS011;2411;47.060;15.064;2023-07-24T10:54:02;14.77;;;10.23;;
4794;SDS011;2411;47.060;15.064;2023-07-24T10:56:29;15.13;;;10.00;;
4794;SDS011;2411;47.060;15.064;2023-07-24T10:59:01;13.20;;;9.50;;
4794;SDS011;2411;47.060;15.064;2023-07-24T11:01:30;13.13;;;10.67;;
4794;SDS011;2411;47.060;15.064;2023-07-24T11:03:59;15.97;;;9.10;;
4794;SDS011;2411;47.060;15.064;2023-07-24T11:06:27;19.40;;;11.70;;
4794;SDS011;2411;47.060;15.064;2023-07-24T11:08:55;11.40;;;9.43;;
4794;SDS011;2411;47.060;15.064;2023-07-24T11:11:30;13.70;;;10.63;;
4794;SDS011;2411;47.060;15.064;2023-07-24T11:14:02;12.00;;;8.63;;
4794;SDS011;2411;47.060;15.064;2023-07-24T11:16:29;14.30;;;10.00;;
4794;SDS011;2411;47.060;15.064;2023-07-24T11:18:58;12.83;;;9.00;;
4794;SDS011;2411;47.060;15.064;2023-07-24T11:21:26;14.87;;;10.43;;
4794;SDS011;2411;47.060;15.064;2023-07-24T11:23:54;15.43;;;9.30;;
4794;SDS011;2411;47.060;15.064;2023-07-24T11:26:22;18.10;;;10.13;;
4794;SDS011;2411;47.060;15.064;2023-07-24T11:28:51;17.40;;;10.37;;
4794;SDS011;2411;47.060;15.064;2023-07-24T11:31:19;12.17;;;9.00;;
4794;SDS011;2411;47.060;15.064;2023-07-24T11:33:48;14.30;;;10.67;;
4794;SDS011;2411;47.060;15.064;2023-07-24T11:36:17;13.77;;;10.30;;
4794;SDS011;2411;47.060;15.064;2023-07-24T11:38:48;12.20;;;9.90;;
4794;SDS011;2411;47.060;15.064;2023-07-24T11:41:16;16.50;;;9.30;;
4794;SDS011;2411;47.060;15.064;2023-07-24T11:43:45;14.80;;;9.63;;
4794;SDS011;2411;47.060;15.064;2023-07-24T11:46:27;16.67;;;9.57;;
4794;SDS011;2411;47.060;15.064;2023-07-24T11:48:55;11.90;;;9.73;;
4794;SDS011;2411;47.060;15.064;2023-07-24T11:51:26;17.03;;;9.37;;
4794;SDS011;2411;47.060;15.064;2023-07-24T11:54:05;12.57;;;9.67;;
4794;SDS011;2411;47.060;15.064;2023-07-24T11:56:34;15.83;;;9.93;;
4794;SDS011;2411;47.060;15.064;2023-07-24T11:59:11;22.87;;;11.00;;
4794;SDS011;2411;47.060;15.064;2023-07-24T12:01:40;17.47;;;9.70;;
4794;SDS011;2411;47.060;15.064;2023-07-24T12:04:08;27.63;;;10.73;;
4794;SDS011;2411;47.060;15.064;2023-07-24T12:06:37;15.00;;;9.80;;
4794;SDS011;2411;47.060;15.064;2023-07-24T12:09:04;20.20;;;10.13;;
4794;SDS011;2411;47.060;15.064;2023-07-24T12:11:33;22.83;;;10.10;;
4794;SDS011;2411;47.060;15.064;2023-07-24T12:14:00;14.30;;;9.27;;
4794;SDS011;2411;47.060;15.064;2023-07-24T12:16:28;15.40;;;9.07;;
4794;SDS011;2411;47.060;15.064;2023-07-24T12:18:55;17.03;;;10.10;;
4794;SDS011;2411;47.060;15.064;2023-07-24T12:21:22;14.27;;;9.67;;
4794;SDS011;2411;47.060;15.064;2023-07-24T12:23:50;11.20;;;9.70;;
4794;SDS011;2411;47.060;15.064;2023-07-24T12:26:17;13.23;;;9.07;;
4794;SDS011;2411;47.060;15.064;2023-07-24T12:28:44;10.67;;;9.17;;
4794;SDS011;2411;47.060;15.064;2023-07-24T12:31:11;13.27;;;9.93;;
4794;SDS011;2411;47.060;15.064;2023-07-24T12:33:39;12.03;;;9.17;;
4794;SDS011;2411;47.060;15.064;2023-07-24T12:36:06;14.87;;;10.40;;
4794;SDS011;2411;47.060;15.064;2023-07-24T12:38:33;28.73;;;10.50;;
4794;SDS011;2411;47.060;15.064;2023-07-24T12:41:01;11.93;;;9.87;;
4794;SDS011;2411;47.060;15.064;2023-07-24T12:43:28;13.87;;;10.03;;
4794;SDS011;2411;47.060;15.064;2023-07-24T12:45:55;17.60;;;10.27;;
4794;SDS011;2411;47.060;15.064;2023-07-24T12:48:22;12.97;;;9.90;;
4794;SDS011;2411;47.060;15.064;2023-07-24T12:50:50;12.30;;;10.10;;
4794;SDS011;2411;47.060;15.064;2023-07-24T12:53:17;18.93;;;9.73;;
4794;SDS011;2411;47.060;15.064;2023-07-24T12:55:55;11.13;;;9.27;;
4794;SDS011;2411;47.060;15.064;2023-07-24T12:58:22;12.00;;;9.40;;
4794;SDS011;2411;47.060;15.064;2023-07-24T13:00:49;11.50;;;9.10;;
4794;SDS011;2411;47.060;15.064;2023-07-24T13:03:16;17.97;;;10.20;;
4794;SDS011;2411;47.060;15.064;2023-07-24T13:05:44;14.10;;;9.80;;
4794;SDS011;2411;47.060;15.064;2023-07-24T13:08:12;14.10;;;9.33;;
4794;SDS011;2411;47.060;15.064;2023-07-24T13:10:43;15.30;;;10.20;;
4794;SDS011;2411;47.060;15.064;2023-07-24T13:13:10;13.00;;;9.00;;
4794;SDS011;2411;47.060;15.064;2023-07-24T13:15:38;14.00;;;9.77;;
4794;SDS011;2411;47.060;15.064;2023-07-24T13:18:05;15.67;;;9.83;;
4794;SDS011;2411;47.060;15.064;2023-07-24T13:20:52;12.97;;;9.60;;
4794;SDS011;2411;47.060;15.064;2023-07-24T13:23:19;18.00;;;10.03;;
4794;SDS011;2411;47.060;15.064;2023-07-24T13:25:46;12.20;;;8.37;;
4794;SDS011;2411;47.060;15.064;2023-07-24T13:28:13;15.87;;;9.20;;
4794;SDS011;2411;47.060;15.064;2023-07-24T13:30:41;11.63;;;9.20;;
4794;SDS011;2411;47.060;15.064;2023-07-24T13:33:08;24.77;;;9.77;;
4794;SDS011;2411;47.060;15.064;2023-07-24T13:35:35;10.90;;;8.83;;
4794;SDS011;2411;47.060;15.064;2023-07-24T13:38:03;18.33;;;9.57;;
4794;SDS011;2411;47.060;15.064;2023-07-24T13:40:31;11.20;;;8.90;;
4794;SDS011;2411;47.060;15.064;2023-07-24T13:42:58;12.87;;;9.30;;
4794;SDS011;2411;47.060;15.064;2023-07-24T13:45:25;15.73;;;9.10;;
4794;SDS011;2411;47.060;15.064;2023-07-24T13:47:52;18.90;;;8.93;;
4794;SDS011;2411;47.060;15.064;2023-07-24T13:50:20;11.23;;;8.90;;
4794;SDS011;2411;47.060;15.064;2023-07-24T13:52:47;17.00;;;8.80;;
4794;SDS011;2411;47.060;15.064;2023-07-24T13:55:14;13.83;;;9.20;;
4794;SDS011;2411;47.060;15.064;2023-07-24T13:57:41;13.83;;;8.80;;
4794;SDS011;2411;47.060;15.064;2023-07-24T14:00:09;11.60;;;7.90;;
4794;SDS011;2411;47.060;15.064;2023-07-24T14:02:36;10.77;;;8.43;;
4794;SDS011;2411;47.060;15.064;2023-07-24T14:05:04;10.90;;;8.57;;
4794;SDS011;2411;47.060;15.064;2023-07-24T14:07:31;12.60;;;8.20;;
4794;SDS011;2411;47.060;15.064;2023-07-24T14:09:59;9.67;;;8.20;;
4794;SDS011;2411;47.060;15.064;2023-07-24T14:12:26;11.60;;;8.33;;
4794;SDS011;2411;47.060;15.064;2023-07-24T14:14:53;15.00;;;8.33;;
4794;SDS011;2411;47.060;15.064;2023-07-24T14:17:21;13.50;;;9.60;;
4794;SDS011;2411;47.060;15.064;2023-07-24T14:19:48;8.60;;;7.47;;
4794;SDS011;2411;47.060;15.064;2023-07-24T14:22:15;10.40;;;7.77;;
4794;SDS011;2411;47.060;15.064;2023-07-24T14:24:43;17.30;;;7.80;;
4794;SDS011;2411;47.060;15.064;2023-07-24T14:27:10;14.30;;;7.57;;
4794;SDS011;2411;47.060;15.064;2023-07-24T14:29:37;11.60;;;7.43;;
4794;SDS011;2411;47.060;15.064;2023-07-24T14:32:05;10.57;;;6.93;;
4794;SDS011;2411;47.060;15.064;2023-07-24T14:34:33;9.10;;;6.67;;
4794;SDS011;2411;47.060;15.064;2023-07-24T14:37:00;7.80;;;5.40;;
4794;SDS011;2411;47.060;15.064;2023-07-24T14:39:28;7.63;;;5.53;;
4794;SDS011;2411;47.060;15.064;2023-07-24T14:41:55;16.43;;;5.47;;
4794;SDS011;2411;47.060;15.064;2023-07-24T14:44:22;8.07;;;5.20;;
4794;SDS011;2411;47.060;15.064;2023-07-24T14:46:49;10.20;;;5.50;;
4794;SDS011;2411;47.060;15.064;2023-07-24T14:49:17;7.00;;;4.10;;
4794;SDS011;2411;47.060;15.064;2023-07-24T14:51:44;4.87;;;4.30;;
4794;SDS011;2411;47.060;15.064;2023-07-24T14:54:11;6.70;;;4.20;;
4794;SDS011;2411;47.060;15.064;2023-07-24T14:56:39;7.10;;;3.80;;
4794;SDS011;2411;47.060;15.064;2023-07-24T14:59:24;7.70;;;4.87;;